sensor_id;sensor_type;location;lat;lon;timestamp;P1;durP1;ratioP1;P2;durP2;ratioP2
76123;SDS011;65173;48.066;20.976;2024-02-21T00:02:07;34.70;;;15.25;;
76123;SDS011;65173;48.066;20.976;2024-02-21T00:05:09;32.50;;;14.75;;
76123;SDS011;65173;48.066;20.976;2024-02-21T00:08:12;27.10;;;14.15;;
76123;SDS011;65173;48.066;20.976;2024-02-21T00:11:15;30.98;;;14.13;;
76123;SDS011;65173;48.066;20.976;2024-02-21T00:14:17;36.53;;;14.93;;
76123;SDS011;65173;48.066;20.976;2024-02-21T00:17:20;29.20;;;14.30;;
76123;SDS011;65173;48.066;20.976;2024-02-21T00:20:23;32.60;;;13.80;;
76123;SDS011;65173;48.066;20.976;2024-02-21T00:23:27;29.07;;;13.27;;
76123;SDS011;65173;48.066;20.976;2024-02-21T00:26:30;29.17;;;13.93;;
76123;SDS011;65173;48.066;20.976;2024-02-21T00:29:33;30.40;;;14.85;;
76123;SDS011;65173;48.066;20.976;2024-02-21T00:32:36;29.77;;;16.35;;
76123;SDS011;65173;48.066;20.976;2024-02-21T00:35:39;31.25;;;15.50;;
76123;SDS011;65173;48.066;20.976;2024-02-21T00:38:41;33.00;;;14.40;;
76123;SDS011;65173;48.066;20.976;2024-02-21T00:41:44;35.50;;;15.90;;
76123;SDS011;65173;48.066;20.976;2024-02-21T00:44:46;35.90;;;14.50;;
76123;SDS011;65173;48.066;20.976;2024-02-21T00:47:49;32.60;;;13.98;;
76123;SDS011;65173;48.066;20.976;2024-02-21T00:50:51;33.08;;;16.02;;
76123;SDS011;65173;48.066;20.976;2024-02-21T00:53:54;37.30;;;16.70;;
76123;SDS011;65173;48.066;20.976;2024-02-21T00:56:57;37.53;;;17.33;;
76123;SDS011;65173;48.066;20.976;2024-02-21T00:59:59;42.83;;;16.98;;
76123;SDS011;65173;48.066;20.976;2024-02-21T01:03:02;35.90;;;15.68;;
76123;SDS011;65173;48.066;20.976;2024-02-21T01:06:04;34.50;;;15.25;;
76123;SDS011;65173;48.066;20.976;2024-02-21T01:09:07;30.48;;;15.05;;
76123;SDS011;65173;48.066;20.976;2024-02-21T01:12:10;41.15;;;15.98;;
76123;SDS011;65173;48.066;20.976;2024-02-21T01:15:12;50.07;;;18.30;;
76123;SDS011;65173;48.066;20.976;2024-02-21T01:18:14;62.42;;;24.60;;
76123;SDS011;65173;48.066;20.976;2024-02-21T01:21:17;56.50;;;23.70;;
76123;SDS011;65173;48.066;20.976;2024-02-21T01:24:20;48.73;;;20.40;;
76123;SDS011;65173;48.066;20.976;2024-02-21T01:27:22;31.67;;;15.82;;
76123;SDS011;65173;48.066;20.976;2024-02-21T01:30:25;37.88;;;17.48;;
76123;SDS011;65173;48.066;20.976;2024-02-21T01:33:27;37.70;;;15.27;;
76123;SDS011;65173;48.066;20.976;2024-02-21T01:36:33;40.55;;;16.80;;
76123;SDS011;65173;48.066;20.976;2024-02-21T01:39:36;40.50;;;17.52;;
76123;SDS011;65173;48.066;20.976;2024-02-21T01:42:39;32.00;;;15.65;;
76123;SDS011;65173;48.066;20.976;2024-02-21T01:45:43;46.63;;;17.93;;
76123;SDS011;65173;48.066;20.976;2024-02-21T01:48:48;34.40;;;16.02;;
76123;SDS011;65173;48.066;20.976;2024-02-21T01:51:51;33.60;;;16.65;;
76123;SDS011;65173;48.066;20.976;2024-02-21T01:54:55;36.40;;;14.63;;
76123;SDS011;65173;48.066;20.976;2024-02-21T01:57:57;35.13;;;16.63;;
76123;SDS011;65173;48.066;20.976;2024-02-21T02:01:00;34.20;;;16.35;;
76123;SDS011;65173;48.066;20.976;2024-02-21T02:04:03;36.72;;;18.25;;
76123;SDS011;65173;48.066;20.976;2024-02-21T02:07:07;38.38;;;14.98;;
76123;SDS011;65173;48.066;20.976;2024-02-21T02:10:10;38.67;;;16.15;;
76123;SDS011;65173;48.066;20.976;2024-02-21T02:13:12;28.70;;;13.55;;
76123;SDS011;65173;48.066;20.976;2024-02-21T02:16:15;30.63;;;15.27;;
76123;SDS011;65173;48.066;20.976;2024-02-21T02:19:18;34.03;;;16.10;;
76123;SDS011;65173;48.066;20.976;2024-02-21T02:22:22;37.97;;;15.65;;
76123;SDS011;65173;48.066;20.976;2024-02-21T02:25:30;32.80;;;14.20;;
76123;SDS011;65173;48.066;20.976;2024-02-21T02:28:32;32.25;;;14.32;;
76123;SDS011;65173;48.066;20.976;2024-02-21T02:31:35;34.92;;;15.38;;
76123;SDS011;65173;48.066;20.976;2024-02-21T02:34:39;33.42;;;15.40;;
76123;SDS011;65173;48.066;20.976;2024-02-21T02:37:47;27.55;;;16.25;;
76123;SDS011;65173;48.066;20.976;2024-02-21T02:40:51;41.42;;;17.65;;
76123;SDS011;65173;48.066;20.976;2024-02-21T02:43:54;35.45;;;17.02;;
76123;SDS011;65173;48.066;20.976;2024-02-21T02:46:56;35.97;;;14.73;;
76123;SDS011;65173;48.066;20.976;2024-02-21T02:49:59;31.38;;;15.52;;
76123;SDS011;65173;48.066;20.976;2024-02-21T02:53:01;35.17;;;16.25;;
76123;SDS011;65173;48.066;20.976;2024-02-21T02:56:04;36.20;;;15.07;;
76123;SDS011;65173;48.066;20.976;2024-02-21T02:59:07;37.28;;;15.25;;
76123;SDS011;65173;48.066;20.976;2024-02-21T03:02:10;40.03;;;15.57;;
76123;SDS011;65173;48.066;20.976;2024-02-21T03:05:16;36.42;;;15.07;;
76123;SDS011;65173;48.066;20.976;2024-02-21T03:08:19;36.85;;;14.82;;
76123;SDS011;65173;48.066;20.976;2024-02-21T03:11:22;32.55;;;14.40;;
76123;SDS011;65173;48.066;20.976;2024-02-21T03:14:31;32.70;;;14.10;;
76123;SDS011;65173;48.066;20.976;2024-02-21T03:17:34;35.13;;;14.20;;
76123;SDS011;65173;48.066;20.976;2024-02-21T03:20:37;25.10;;;13.48;;
76123;SDS011;65173;48.066;20.976;2024-02-21T03:23:39;34.13;;;15.73;;
76123;SDS011;65173;48.066;20.976;2024-02-21T03:26:42;29.00;;;13.67;;
76123;SDS011;65173;48.066;20.976;2024-02-21T03:29:44;28.38;;;14.38;;
76123;SDS011;65173;48.066;20.976;2024-02-21T03:32:47;35.10;;;16.45;;
76123;SDS011;65173;48.066;20.976;2024-02-21T03:35:49;28.27;;;13.00;;
76123;SDS011;65173;48.066;20.976;2024-02-21T03:38:52;31.10;;;14.48;;
76123;SDS011;65173;48.066;20.976;2024-02-21T03:41:56;36.25;;;14.32;;
76123;SDS011;65173;48.066;20.976;2024-02-21T03:44:58;29.55;;;13.20;;
76123;SDS011;65173;48.066;20.976;2024-02-21T03:48:01;29.47;;;12.30;;
76123;SDS011;65173;48.066;20.976;2024-02-21T03:51:04;28.77;;;13.90;;
76123;SDS011;65173;48.066;20.976;2024-02-21T03:54:07;33.42;;;12.80;;
76123;SDS011;65173;48.066;20.976;2024-02-21T03:57:09;29.37;;;12.43;;
76123;SDS011;65173;48.066;20.976;2024-02-21T04:00:12;38.03;;;15.27;;
76123;SDS011;65173;48.066;20.976;2024-02-21T04:03:14;30.88;;;14.90;;
76123;SDS011;65173;48.066;20.976;2024-02-21T04:06:17;32.08;;;13.52;;
76123;SDS011;65173;48.066;20.976;2024-02-21T04:09:20;34.72;;;13.10;;
76123;SDS011;65173;48.066;20.976;2024-02-21T04:12:22;31.05;;;12.63;;
76123;SDS011;65173;48.066;20.976;2024-02-21T04:15:24;30.60;;;12.85;;
76123;SDS011;65173;48.066;20.976;2024-02-21T04:18:27;29.30;;;12.57;;
76123;SDS011;65173;48.066;20.976;2024-02-21T04:21:30;25.52;;;12.77;;
76123;SDS011;65173;48.066;20.976;2024-02-21T04:24:32;31.52;;;13.00;;
76123;SDS011;65173;48.066;20.976;2024-02-21T04:27:35;29.73;;;13.03;;
76123;SDS011;65173;48.066;20.976;2024-02-21T04:30:37;25.55;;;12.02;;
76123;SDS011;65173;48.066;20.976;2024-02-21T04:33:39;28.85;;;13.00;;
76123;SDS011;65173;48.066;20.976;2024-02-21T04:36:42;34.42;;;14.68;;
76123;SDS011;65173;48.066;20.976;2024-02-21T04:39:45;37.42;;;13.60;;
76123;SDS011;65173;48.066;20.976;2024-02-21T04:42:48;35.88;;;15.30;;
76123;SDS011;65173;48.066;20.976;2024-02-21T04:45:50;48.60;;;18.75;;
76123;SDS011;65173;48.066;20.976;2024-02-21T04:48:55;42.40;;;17.97;;
76123;SDS011;65173;48.066;20.976;2024-02-21T04:51:58;45.13;;;17.38;;
76123;SDS011;65173;48.066;20.976;2024-02-21T04:55:01;38.13;;;15.98;;
76123;SDS011;65173;48.066;20.976;2024-02-21T04:58:03;40.40;;;16.67;;
76123;SDS011;65173;48.066;20.976;2024-02-21T05:01:06;40.78;;;16.25;;
76123;SDS011;65173;48.066;20.976;2024-02-21T05:04:10;50.00;;;20.30;;
76123;SDS011;65173;48.066;20.976;2024-02-21T05:07:12;40.70;;;16.70;;
76123;SDS011;65173;48.066;20.976;2024-02-21T05:10:15;38.80;;;15.77;;
76123;SDS011;65173;48.066;20.976;2024-02-21T05:13:20;32.83;;;15.85;;
76123;SDS011;65173;48.066;20.976;2024-02-21T05:16:22;39.10;;;16.80;;
76123;SDS011;65173;48.066;20.976;2024-02-21T05:19:25;43.13;;;16.70;;
76123;SDS011;65173;48.066;20.976;2024-02-21T05:22:27;36.88;;;14.95;;
76123;SDS011;65173;48.066;20.976;2024-02-21T05:25:30;35.78;;;15.77;;
76123;SDS011;65173;48.066;20.976;2024-02-21T05:28:33;32.93;;;17.70;;
76123;SDS011;65173;48.066;20.976;2024-02-21T05:34:53;32.45;;;14.82;;
76123;SDS011;65173;48.066;20.976;2024-02-21T05:37:55;35.15;;;14.45;;
76123;SDS011;65173;48.066;20.976;2024-02-21T05:40:58;33.00;;;11.80;;
76123;SDS011;65173;48.066;20.976;2024-02-21T05:44:01;28.23;;;12.52;;
76123;SDS011;65173;48.066;20.976;2024-02-21T05:47:04;31.77;;;13.18;;
76123;SDS011;65173;48.066;20.976;2024-02-21T05:50:06;34.60;;;14.43;;
76123;SDS011;65173;48.066;20.976;2024-02-21T05:53:09;32.30;;;12.75;;
76123;SDS011;65173;48.066;20.976;2024-02-21T05:56:13;28.05;;;13.35;;
76123;SDS011;65173;48.066;20.976;2024-02-21T05:59:16;32.33;;;13.80;;
76123;SDS011;65173;48.066;20.976;2024-02-21T06:02:19;33.28;;;13.43;;
76123;SDS011;65173;48.066;20.976;2024-02-21T06:05:22;40.78;;;16.85;;
76123;SDS011;65173;48.066;20.976;2024-02-21T06:08:24;38.67;;;15.82;;
76123;SDS011;65173;48.066;20.976;2024-02-21T06:11:27;43.88;;;17.65;;
76123;SDS011;65173;48.066;20.976;2024-02-21T06:14:29;33.70;;;15.23;;
76123;SDS011;65173;48.066;20.976;2024-02-21T06:17:32;43.38;;;17.08;;
76123;SDS011;65173;48.066;20.976;2024-02-21T06:20:34;44.07;;;17.60;;
76123;SDS011;65173;48.066;20.976;2024-02-21T06:23:38;41.08;;;16.98;;
76123;SDS011;65173;48.066;20.976;2024-02-21T06:26:41;42.53;;;17.52;;
76123;SDS011;65173;48.066;20.976;2024-02-21T06:29:44;51.57;;;20.03;;
76123;SDS011;65173;48.066;20.976;2024-02-21T06:32:46;42.92;;;18.27;;
76123;SDS011;65173;48.066;20.976;2024-02-21T06:35:49;42.15;;;19.67;;
76123;SDS011;65173;48.066;20.976;2024-02-21T06:38:54;49.83;;;18.20;;
76123;SDS011;65173;48.066;20.976;2024-02-21T06:41:57;52.30;;;18.35;;
76123;SDS011;65173;48.066;20.976;2024-02-21T06:45:05;44.65;;;19.70;;
76123;SDS011;65173;48.066;20.976;2024-02-21T06:48:07;44.88;;;17.95;;
76123;SDS011;65173;48.066;20.976;2024-02-21T06:51:10;39.07;;;14.97;;
76123;SDS011;65173;48.066;20.976;2024-02-21T06:54:12;39.30;;;18.25;;
76123;SDS011;65173;48.066;20.976;2024-02-21T06:57:15;35.72;;;15.98;;
76123;SDS011;65173;48.066;20.976;2024-02-21T07:00:18;45.17;;;16.83;;
76123;SDS011;65173;48.066;20.976;2024-02-21T07:03:23;40.80;;;16.45;;
76123;SDS011;65173;48.066;20.976;2024-02-21T07:06:26;40.95;;;15.65;;
76123;SDS011;65173;48.066;20.976;2024-02-21T07:09:31;46.30;;;18.05;;
76123;SDS011;65173;48.066;20.976;2024-02-21T07:12:34;38.90;;;15.82;;
76123;SDS011;65173;48.066;20.976;2024-02-21T07:15:39;41.88;;;16.95;;
76123;SDS011;65173;48.066;20.976;2024-02-21T07:18:41;36.75;;;14.52;;
76123;SDS011;65173;48.066;20.976;2024-02-21T07:21:44;34.13;;;13.70;;
76123;SDS011;65173;48.066;20.976;2024-02-21T07:24:46;35.90;;;14.20;;
76123;SDS011;65173;48.066;20.976;2024-02-21T07:27:49;39.25;;;17.13;;
76123;SDS011;65173;48.066;20.976;2024-02-21T07:30:51;34.33;;;14.53;;
76123;SDS011;65173;48.066;20.976;2024-02-21T07:33:54;45.00;;;17.42;;
76123;SDS011;65173;48.066;20.976;2024-02-21T07:36:57;32.97;;;13.02;;
76123;SDS011;65173;48.066;20.976;2024-02-21T07:39:59;37.08;;;16.48;;
76123;SDS011;65173;48.066;20.976;2024-02-21T07:43:02;44.00;;;16.10;;
76123;SDS011;65173;48.066;20.976;2024-02-21T07:46:05;30.55;;;13.50;;
76123;SDS011;65173;48.066;20.976;2024-02-21T07:49:07;30.73;;;13.45;;
76123;SDS011;65173;48.066;20.976;2024-02-21T07:52:10;23.70;;;10.80;;
76123;SDS011;65173;48.066;20.976;2024-02-21T07:55:13;27.15;;;10.65;;
76123;SDS011;65173;48.066;20.976;2024-02-21T07:58:18;24.13;;;9.88;;
76123;SDS011;65173;48.066;20.976;2024-02-21T08:01:20;22.30;;;9.33;;
76123;SDS011;65173;48.066;20.976;2024-02-21T08:04:23;15.43;;;7.28;;
76123;SDS011;65173;48.066;20.976;2024-02-21T08:07:26;18.35;;;8.40;;
76123;SDS011;65173;48.066;20.976;2024-02-21T08:10:31;13.45;;;7.10;;
76123;SDS011;65173;48.066;20.976;2024-02-21T08:13:34;13.60;;;6.68;;
76123;SDS011;65173;48.066;20.976;2024-02-21T08:16:36;14.95;;;6.75;;
76123;SDS011;65173;48.066;20.976;2024-02-21T08:19:39;14.77;;;6.88;;
76123;SDS011;65173;48.066;20.976;2024-02-21T08:22:41;12.73;;;6.70;;
76123;SDS011;65173;48.066;20.976;2024-02-21T08:25:44;14.02;;;6.22;;
76123;SDS011;65173;48.066;20.976;2024-02-21T08:28:46;14.20;;;6.95;;
76123;SDS011;65173;48.066;20.976;2024-02-21T08:31:49;13.63;;;6.20;;
76123;SDS011;65173;48.066;20.976;2024-02-21T08:34:51;12.52;;;6.25;;
76123;SDS011;65173;48.066;20.976;2024-02-21T08:37:54;15.57;;;6.53;;
76123;SDS011;65173;48.066;20.976;2024-02-21T08:40:56;11.35;;;6.25;;
76123;SDS011;65173;48.066;20.976;2024-02-21T08:43:59;10.30;;;5.47;;
76123;SDS011;65173;48.066;20.976;2024-02-21T08:47:02;10.63;;;4.93;;
76123;SDS011;65173;48.066;20.976;2024-02-21T08:50:06;11.52;;;5.20;;
76123;SDS011;65173;48.066;20.976;2024-02-21T08:53:24;8.57;;;4.47;;
76123;SDS011;65173;48.066;20.976;2024-02-21T08:56:26;9.98;;;4.80;;
76123;SDS011;65173;48.066;20.976;2024-02-21T08:59:29;8.07;;;4.75;;
76123;SDS011;65173;48.066;20.976;2024-02-21T09:02:31;8.33;;;4.03;;
76123;SDS011;65173;48.066;20.976;2024-02-21T09:05:34;8.38;;;4.13;;
76123;SDS011;65173;48.066;20.976;2024-02-21T09:08:37;8.43;;;4.72;;
76123;SDS011;65173;48.066;20.976;2024-02-21T09:11:39;5.70;;;2.70;;
76123;SDS011;65173;48.066;20.976;2024-02-21T09:14:43;6.30;;;3.50;;
76123;SDS011;65173;48.066;20.976;2024-02-21T09:17:45;4.55;;;2.70;;
76123;SDS011;65173;48.066;20.976;2024-02-21T09:20:48;5.50;;;3.30;;
76123;SDS011;65173;48.066;20.976;2024-02-21T09:23:51;5.10;;;2.83;;
76123;SDS011;65173;48.066;20.976;2024-02-21T09:26:55;6.65;;;3.30;;
76123;SDS011;65173;48.066;20.976;2024-02-21T09:30:02;7.72;;;3.20;;
76123;SDS011;65173;48.066;20.976;2024-02-21T09:33:07;8.07;;;3.23;;
76123;SDS011;65173;48.066;20.976;2024-02-21T09:36:09;6.50;;;3.00;;
76123;SDS011;65173;48.066;20.976;2024-02-21T09:39:12;4.47;;;2.40;;
76123;SDS011;65173;48.066;20.976;2024-02-21T09:42:20;5.28;;;3.42;;
76123;SDS011;65173;48.066;20.976;2024-02-21T09:45:26;3.92;;;2.47;;
76123;SDS011;65173;48.066;20.976;2024-02-21T09:52:02;3.30;;;1.80;;
76123;SDS011;65173;48.066;20.976;2024-02-21T09:55:09;4.80;;;1.50;;
76123;SDS011;65173;48.066;20.976;2024-02-21T09:58:14;3.33;;;2.03;;
76123;SDS011;65173;48.066;20.976;2024-02-21T10:01:17;4.40;;;1.65;;
76123;SDS011;65173;48.066;20.976;2024-02-21T10:04:35;4.40;;;2.20;;
76123;SDS011;65173;48.066;20.976;2024-02-21T10:07:38;4.82;;;2.45;;
76123;SDS011;65173;48.066;20.976;2024-02-21T10:10:45;6.22;;;2.78;;
76123;SDS011;65173;48.066;20.976;2024-02-21T10:13:48;4.65;;;2.92;;
76123;SDS011;65173;48.066;20.976;2024-02-21T10:16:58;3.70;;;2.08;;
76123;SDS011;65173;48.066;20.976;2024-02-21T10:20:10;4.97;;;2.55;;
76123;SDS011;65173;48.066;20.976;2024-02-21T10:23:14;2.80;;;2.25;;
76123;SDS011;65173;48.066;20.976;2024-02-21T10:26:17;3.87;;;1.87;;
76123;SDS011;65173;48.066;20.976;2024-02-21T10:29:21;5.25;;;2.22;;
76123;SDS011;65173;48.066;20.976;2024-02-21T10:32:24;3.53;;;2.10;;
76123;SDS011;65173;48.066;20.976;2024-02-21T10:35:29;3.27;;;2.10;;
76123;SDS011;65173;48.066;20.976;2024-02-21T10:38:33;6.00;;;2.60;;
76123;SDS011;65173;48.066;20.976;2024-02-21T10:41:36;4.18;;;2.65;;
76123;SDS011;65173;48.066;20.976;2024-02-21T10:44:42;6.70;;;3.05;;
76123;SDS011;65173;48.066;20.976;2024-02-21T10:47:48;5.10;;;2.58;;
76123;SDS011;65173;48.066;20.976;2024-02-21T10:51:02;5.80;;;3.40;;
76123;SDS011;65173;48.066;20.976;2024-02-21T10:57:18;5.93;;;2.87;;
76123;SDS011;65173;48.066;20.976;2024-02-21T11:00:24;3.85;;;2.55;;
76123;SDS011;65173;48.066;20.976;2024-02-21T11:03:32;5.00;;;3.17;;
76123;SDS011;65173;48.066;20.976;2024-02-21T11:06:35;6.13;;;2.57;;
76123;SDS011;65173;48.066;20.976;2024-02-21T11:09:39;4.95;;;2.67;;
76123;SDS011;65173;48.066;20.976;2024-02-21T11:12:44;5.35;;;3.10;;
76123;SDS011;65173;48.066;20.976;2024-02-21T11:15:47;6.15;;;2.35;;
76123;SDS011;65173;48.066;20.976;2024-02-21T11:18:50;5.93;;;2.85;;
76123;SDS011;65173;48.066;20.976;2024-02-21T11:21:53;3.22;;;2.50;;
76123;SDS011;65173;48.066;20.976;2024-02-21T11:25:05;6.03;;;2.65;;
76123;SDS011;65173;48.066;20.976;2024-02-21T11:28:10;4.60;;;2.70;;
76123;SDS011;65173;48.066;20.976;2024-02-21T11:31:16;8.25;;;3.55;;
76123;SDS011;65173;48.066;20.976;2024-02-21T11:34:18;6.93;;;3.00;;
76123;SDS011;65173;48.066;20.976;2024-02-21T11:37:23;5.40;;;2.83;;
76123;SDS011;65173;48.066;20.976;2024-02-21T11:40:28;3.63;;;2.13;;
76123;SDS011;65173;48.066;20.976;2024-02-21T11:43:31;3.42;;;2.47;;
76123;SDS011;65173;48.066;20.976;2024-02-21T11:46:34;4.70;;;2.58;;
76123;SDS011;65173;48.066;20.976;2024-02-21T11:49:37;3.83;;;1.98;;
76123;SDS011;65173;48.066;20.976;2024-02-21T11:52:41;8.50;;;2.78;;
76123;SDS011;65173;48.066;20.976;2024-02-21T11:55:47;5.50;;;2.28;;
76123;SDS011;65173;48.066;20.976;2024-02-21T11:58:50;5.67;;;2.83;;
76123;SDS011;65173;48.066;20.976;2024-02-21T12:01:52;6.80;;;3.78;;
76123;SDS011;65173;48.066;20.976;2024-02-21T12:04:55;4.30;;;2.60;;
76123;SDS011;65173;48.066;20.976;2024-02-21T12:07:58;5.53;;;4.00;;
76123;SDS011;65173;48.066;20.976;2024-02-21T12:11:01;11.00;;;2.90;;
76123;SDS011;65173;48.066;20.976;2024-02-21T12:14:04;5.25;;;2.22;;
76123;SDS011;65173;48.066;20.976;2024-02-21T12:17:07;9.18;;;3.15;;
76123;SDS011;65173;48.066;20.976;2024-02-21T12:20:10;6.10;;;3.50;;
76123;SDS011;65173;48.066;20.976;2024-02-21T12:23:18;6.13;;;3.17;;
76123;SDS011;65173;48.066;20.976;2024-02-21T12:26:21;3.70;;;2.33;;
76123;SDS011;65173;48.066;20.976;2024-02-21T12:29:24;3.60;;;1.90;;
76123;SDS011;65173;48.066;20.976;2024-02-21T12:32:27;6.82;;;3.10;;
76123;SDS011;65173;48.066;20.976;2024-02-21T12:35:30;6.03;;;2.40;;
76123;SDS011;65173;48.066;20.976;2024-02-21T12:38:35;4.63;;;2.20;;
76123;SDS011;65173;48.066;20.976;2024-02-21T12:41:38;3.40;;;1.45;;
76123;SDS011;65173;48.066;20.976;2024-02-21T12:44:41;4.45;;;2.33;;
76123;SDS011;65173;48.066;20.976;2024-02-21T12:47:44;5.53;;;2.55;;
76123;SDS011;65173;48.066;20.976;2024-02-21T12:50:50;5.65;;;2.85;;
76123;SDS011;65173;48.066;20.976;2024-02-21T12:53:56;4.60;;;2.40;;
76123;SDS011;65173;48.066;20.976;2024-02-21T12:56:59;1.85;;;1.65;;
76123;SDS011;65173;48.066;20.976;2024-02-21T13:00:05;6.07;;;2.33;;
76123;SDS011;65173;48.066;20.976;2024-02-21T13:03:11;2.97;;;2.08;;
76123;SDS011;65173;48.066;20.976;2024-02-21T13:06:13;3.22;;;1.95;;
76123;SDS011;65173;48.066;20.976;2024-02-21T13:09:16;4.70;;;3.07;;
76123;SDS011;65173;48.066;20.976;2024-02-21T13:12:18;3.65;;;2.08;;
76123;SDS011;65173;48.066;20.976;2024-02-21T13:15:21;5.55;;;2.63;;
76123;SDS011;65173;48.066;20.976;2024-02-21T13:18:24;4.05;;;1.98;;
76123;SDS011;65173;48.066;20.976;2024-02-21T13:21:26;3.45;;;1.90;;
76123;SDS011;65173;48.066;20.976;2024-02-21T13:24:30;2.53;;;1.75;;
76123;SDS011;65173;48.066;20.976;2024-02-21T13:27:33;1.45;;;1.00;;
76123;SDS011;65173;48.066;20.976;2024-02-21T13:30:36;2.90;;;1.57;;
76123;SDS011;65173;48.066;20.976;2024-02-21T13:33:38;3.85;;;2.08;;
76123;SDS011;65173;48.066;20.976;2024-02-21T13:36:41;5.50;;;2.15;;
76123;SDS011;65173;48.066;20.976;2024-02-21T13:39:44;2.23;;;1.33;;
76123;SDS011;65173;48.066;20.976;2024-02-21T13:42:50;2.13;;;1.48;;
76123;SDS011;65173;48.066;20.976;2024-02-21T13:45:57;2.22;;;1.98;;
76123;SDS011;65173;48.066;20.976;2024-02-21T13:49:04;2.78;;;1.40;;
76123;SDS011;65173;48.066;20.976;2024-02-21T13:52:08;3.55;;;1.90;;
76123;SDS011;65173;48.066;20.976;2024-02-21T13:55:11;2.70;;;1.85;;
76123;SDS011;65173;48.066;20.976;2024-02-21T13:58:13;2.25;;;1.30;;
76123;SDS011;65173;48.066;20.976;2024-02-21T14:01:17;3.73;;;0.87;;
76123;SDS011;65173;48.066;20.976;2024-02-21T14:04:20;1.25;;;1.15;;
76123;SDS011;65173;48.066;20.976;2024-02-21T14:07:23;1.20;;;0.82;;
76123;SDS011;65173;48.066;20.976;2024-02-21T14:10:26;1.10;;;0.60;;
76123;SDS011;65173;48.066;20.976;2024-02-21T14:13:30;1.65;;;1.13;;
76123;SDS011;65173;48.066;20.976;2024-02-21T14:16:33;1.45;;;0.93;;
76123;SDS011;65173;48.066;20.976;2024-02-21T14:19:36;1.38;;;0.88;;
76123;SDS011;65173;48.066;20.976;2024-02-21T14:22:39;2.83;;;1.45;;
76123;SDS011;65173;48.066;20.976;2024-02-21T14:25:41;1.55;;;1.17;;
76123;SDS011;65173;48.066;20.976;2024-02-21T14:28:44;1.52;;;1.30;;
76123;SDS011;65173;48.066;20.976;2024-02-21T14:31:51;3.00;;;1.70;;
76123;SDS011;65173;48.066;20.976;2024-02-21T14:34:53;1.92;;;1.05;;
76123;SDS011;65173;48.066;20.976;2024-02-21T14:37:56;0.93;;;0.80;;
76123;SDS011;65173;48.066;20.976;2024-02-21T14:41:00;1.20;;;0.80;;
76123;SDS011;65173;48.066;20.976;2024-02-21T14:44:02;4.32;;;2.40;;
76123;SDS011;65173;48.066;20.976;2024-02-21T14:47:06;2.80;;;1.25;;
76123;SDS011;65173;48.066;20.976;2024-02-21T14:50:09;0.95;;;0.75;;
76123;SDS011;65173;48.066;20.976;2024-02-21T14:53:13;3.40;;;2.05;;
76123;SDS011;65173;48.066;20.976;2024-02-21T14:56:15;1.65;;;1.13;;
76123;SDS011;65173;48.066;20.976;2024-02-21T14:59:19;3.67;;;0.93;;
76123;SDS011;65173;48.066;20.976;2024-02-21T15:02:34;2.13;;;0.73;;
76123;SDS011;65173;48.066;20.976;2024-02-21T15:05:37;1.85;;;1.75;;
76123;SDS011;65173;48.066;20.976;2024-02-21T15:08:42;1.35;;;0.88;;
76123;SDS011;65173;48.066;20.976;2024-02-21T15:11:45;1.90;;;1.00;;
76123;SDS011;65173;48.066;20.976;2024-02-21T15:14:47;0.85;;;0.70;;
76123;SDS011;65173;48.066;20.976;2024-02-21T15:17:50;1.67;;;0.90;;
76123;SDS011;65173;48.066;20.976;2024-02-21T15:20:52;2.13;;;1.23;;
76123;SDS011;65173;48.066;20.976;2024-02-21T15:23:55;1.38;;;0.98;;
76123;SDS011;65173;48.066;20.976;2024-02-21T15:26:58;2.72;;;1.38;;
76123;SDS011;65173;48.066;20.976;2024-02-21T15:30:01;0.65;;;0.65;;
76123;SDS011;65173;48.066;20.976;2024-02-21T15:33:04;0.77;;;0.77;;
76123;SDS011;65173;48.066;20.976;2024-02-21T15:36:07;2.00;;;1.60;;
76123;SDS011;65173;48.066;20.976;2024-02-21T15:39:10;2.35;;;1.30;;
76123;SDS011;65173;48.066;20.976;2024-02-21T15:42:13;1.63;;;1.17;;
76123;SDS011;65173;48.066;20.976;2024-02-21T15:45:16;1.92;;;1.42;;
76123;SDS011;65173;48.066;20.976;2024-02-21T15:48:18;2.80;;;1.02;;
76123;SDS011;65173;48.066;20.976;2024-02-21T15:51:23;4.05;;;2.30;;
76123;SDS011;65173;48.066;20.976;2024-02-21T15:54:26;0.63;;;0.63;;
76123;SDS011;65173;48.066;20.976;2024-02-21T15:57:29;1.63;;;0.82;;
76123;SDS011;65173;48.066;20.976;2024-02-21T16:00:34;0.45;;;0.30;;
76123;SDS011;65173;48.066;20.976;2024-02-21T16:03:37;3.07;;;1.57;;
76123;SDS011;65173;48.066;20.976;2024-02-21T16:06:42;2.05;;;1.33;;
76123;SDS011;65173;48.066;20.976;2024-02-21T16:09:46;3.55;;;1.33;;
76123;SDS011;65173;48.066;20.976;2024-02-21T16:12:49;3.87;;;1.73;;
76123;SDS011;65173;48.066;20.976;2024-02-21T16:15:53;2.53;;;1.25;;
76123;SDS011;65173;48.066;20.976;2024-02-21T16:18:55;3.33;;;1.58;;
76123;SDS011;65173;48.066;20.976;2024-02-21T16:21:58;2.80;;;2.08;;
76123;SDS011;65173;48.066;20.976;2024-02-21T16:25:03;7.85;;;2.88;;
76123;SDS011;65173;48.066;20.976;2024-02-21T16:28:06;2.88;;;2.10;;
76123;SDS011;65173;48.066;20.976;2024-02-21T16:31:11;5.40;;;2.38;;
76123;SDS011;65173;48.066;20.976;2024-02-21T16:34:14;4.47;;;2.57;;
76123;SDS011;65173;48.066;20.976;2024-02-21T16:37:18;3.83;;;1.95;;
76123;SDS011;65173;48.066;20.976;2024-02-21T16:40:21;5.25;;;3.10;;
76123;SDS011;65173;48.066;20.976;2024-02-21T16:43:24;3.70;;;2.17;;
76123;SDS011;65173;48.066;20.976;2024-02-21T16:46:26;4.47;;;2.08;;
76123;SDS011;65173;48.066;20.976;2024-02-21T16:49:29;5.82;;;3.25;;
76123;SDS011;65173;48.066;20.976;2024-02-21T16:52:35;4.53;;;2.80;;
76123;SDS011;65173;48.066;20.976;2024-02-21T16:55:37;2.95;;;2.38;;
76123;SDS011;65173;48.066;20.976;2024-02-21T16:58:40;5.95;;;2.78;;
76123;SDS011;65173;48.066;20.976;2024-02-21T17:01:42;5.35;;;2.90;;
76123;SDS011;65173;48.066;20.976;2024-02-21T17:04:46;6.27;;;2.73;;
76123;SDS011;65173;48.066;20.976;2024-02-21T17:07:50;4.70;;;2.95;;
76123;SDS011;65173;48.066;20.976;2024-02-21T17:10:54;4.45;;;2.60;;
76123;SDS011;65173;48.066;20.976;2024-02-21T17:13:57;5.40;;;2.97;;
76123;SDS011;65173;48.066;20.976;2024-02-21T17:17:00;6.18;;;2.85;;
76123;SDS011;65173;48.066;20.976;2024-02-21T17:20:03;10.07;;;3.78;;
76123;SDS011;65173;48.066;20.976;2024-02-21T17:23:11;7.32;;;3.88;;
76123;SDS011;65173;48.066;20.976;2024-02-21T17:26:16;6.55;;;3.05;;
76123;SDS011;65173;48.066;20.976;2024-02-21T17:29:20;4.85;;;3.03;;
76123;SDS011;65173;48.066;20.976;2024-02-21T17:32:22;8.70;;;3.80;;
76123;SDS011;65173;48.066;20.976;2024-02-21T17:35:25;7.53;;;3.43;;
76123;SDS011;65173;48.066;20.976;2024-02-21T17:38:27;5.25;;;3.20;;
76123;SDS011;65173;48.066;20.976;2024-02-21T17:41:32;11.18;;;3.50;;
76123;SDS011;65173;48.066;20.976;2024-02-21T17:44:34;7.13;;;3.30;;
76123;SDS011;65173;48.066;20.976;2024-02-21T17:47:41;8.57;;;4.38;;
76123;SDS011;65173;48.066;20.976;2024-02-21T17:50:44;5.88;;;2.38;;
76123;SDS011;65173;48.066;20.976;2024-02-21T17:53:46;6.85;;;3.05;;
76123;SDS011;65173;48.066;20.976;2024-02-21T17:56:49;7.18;;;3.45;;
76123;SDS011;65173;48.066;20.976;2024-02-21T17:59:52;8.60;;;3.13;;
76123;SDS011;65173;48.066;20.976;2024-02-21T18:02:56;4.93;;;3.17;;
76123;SDS011;65173;48.066;20.976;2024-02-21T18:05:59;7.73;;;3.37;;